Time;durP1;ratioP1;P1;durP2;ratioP2;P2;SDS_P1;SDS_P2;PMS_P1;PMS_P2;Temp;Humidity;BMP_temperature;BMP_pressure;BME280_temperature;BME280_humidity;BME280_pressure;Samples;Min_cycle;Max_cycle;Signal;HPM_P1;HPM_P2
2024/01/23 00:00:42;;;;;;;7.90;4.82;;;6.60;71.20;;;;;;6103101;23;20574;-77
2024/01/23 00:03:08;;;;;;;8.18;4.13;;;6.60;71.30;;;;;;6153860;23;20093;-78
2024/01/23 00:05:34;;;;;;;6.88;4.57;;;6.50;71.70;;;;;;6154253;23;20040;-81
2024/01/23 00:08:00;;;;;;;6.78;4.38;;;6.50;70.80;;;;;;6128236;23;20013;-80
2024/01/23 00:10:26;;;;;;;8.90;5.03;;;6.50;70.70;;;;;;6104872;23;20067;-80
2024/01/23 00:12:52;;;;;;;6.05;4.28;;;6.60;70.70;;;;;;6103767;23;20028;-79
2024/01/23 00:15:18;;;;;;;9.45;4.88;;;6.50;70.80;;;;;;6104017;23;20499;-80
2024/01/23 00:17:44;;;;;;;10.10;4.32;;;6.50;70.80;;;;;;6152855;23;20025;-81
2024/01/23 00:20:11;;;;;;;6.45;4.28;;;6.50;71.00;;;;;;6129090;23;20552;-81
2024/01/23 00:22:37;;;;;;;6.68;4.15;;;6.50;71.10;;;;;;6152647;23;20441;-81
2024/01/23 00:25:03;;;;;;;6.70;4.75;;;6.50;71.40;;;;;;6128781;23;20009;-81
2024/01/23 00:27:29;;;;;;;6.05;4.15;;;6.60;71.10;;;;;;6128313;23;20045;-81
2024/01/23 00:29:56;;;;;;;7.68;4.80;;;6.50;70.90;;;;;;6103364;23;20545;-81
2024/01/23 00:32:24;;;;;;;9.85;4.70;;;6.60;70.70;;;;;;6103663;23;20017;-77
2024/01/23 00:34:50;;;;;;;7.22;4.28;;;6.60;70.80;;;;;;6152219;23;20453;-78
2024/01/23 00:37:16;;;;;;;7.55;3.80;;;6.60;70.90;;;;;;6128523;23;20483;-79
2024/01/23 00:39:42;;;;;;;7.55;4.63;;;6.50;70.60;;;;;;6153671;23;20017;-78
2024/01/23 00:42:08;;;;;;;10.77;4.43;;;6.50;70.60;;;;;;6152412;23;20025;-79
2024/01/23 00:44:34;;;;;;;6.35;4.80;;;6.50;70.80;;;;;;6102985;23;20519;-77
2024/01/23 00:47:01;;;;;;;6.60;4.35;;;6.50;70.70;;;;;;6127399;23;20021;-78
2024/01/23 00:49:27;;;;;;;6.85;4.60;;;6.60;71.20;;;;;;6154059;23;20135;-77
2024/01/23 00:51:52;;;;;;;8.48;4.85;;;6.60;70.50;;;;;;6127327;23;20030;-77
2024/01/23 00:54:19;;;;;;;7.20;4.60;;;6.50;70.20;;;;;;6127703;23;20372;-77
2024/01/23 00:56:45;;;;;;;7.32;4.63;;;6.50;70.30;;;;;;6151962;23;20017;-77
2024/01/23 00:59:12;;;;;;;7.70;5.32;;;6.50;70.30;;;;;;6152104;23;20014;-78
2024/01/23 01:01:39;;;;;;;7.53;4.53;;;6.60;70.20;;;;;;6127375;23;20076;-78
2024/01/23 01:04:05;;;;;;;6.95;5.20;;;6.60;70.50;;;;;;6103733;23;20449;-78
2024/01/23 01:06:31;;;;;;;8.40;4.72;;;6.60;70.30;;;;;;6153327;23;20120;-78
2024/01/23 01:08:58;;;;;;;9.60;5.18;;;6.50;69.90;;;;;;6152824;23;20025;-77
2024/01/23 01:11:24;;;;;;;5.95;4.40;;;6.50;69.90;;;;;;6151893;23;20013;-77
2024/01/23 01:13:50;;;;;;;7.65;4.93;;;6.50;69.90;;;;;;6153139;23;20772;-77
2024/01/23 01:16:16;;;;;;;7.22;4.53;;;6.50;69.90;;;;;;6152526;23;20033;-78
2024/01/23 01:18:42;;;;;;;6.57;4.93;;;6.50;69.70;;;;;;6126954;23;20334;-78
2024/01/23 01:21:08;;;;;;;7.50;4.65;;;6.50;70.00;;;;;;6152895;23;20037;-77
2024/01/23 01:23:35;;;;;;;7.57;4.80;;;6.50;70.10;;;;;;6127084;23;20025;-77
2024/01/23 01:26:01;;;;;;;8.05;4.70;;;6.50;69.80;;;;;;6128258;23;20032;-79
2024/01/23 01:28:28;;;;;;;6.60;4.85;;;6.50;69.50;;;;;;6127655;23;20372;-81
2024/01/23 01:30:54;;;;;;;6.60;4.68;;;6.50;69.50;;;;;;6102553;23;20028;-78
2024/01/23 01:33:20;;;;;;;7.38;4.75;;;6.50;69.60;;;;;;6153139;23;20017;-78
2024/01/23 01:35:46;;;;;;;7.38;4.80;;;6.50;69.60;;;;;;6126924;23;20062;-77
2024/01/23 01:38:12;;;;;;;7.25;4.70;;;6.60;69.80;;;;;;6127046;23;20369;-77
2024/01/23 01:40:38;;;;;;;7.15;5.07;;;6.60;69.60;;;;;;6153561;23;20519;-79
2024/01/23 01:43:04;;;;;;;6.95;4.82;;;6.50;69.60;;;;;;6128299;23;20005;-80
2024/01/23 01:45:30;;;;;;;6.75;4.80;;;6.50;69.70;;;;;;6102784;23;20017;-79
2024/01/23 01:47:56;;;;;;;7.10;4.85;;;6.50;69.50;;;;;;6102720;23;20113;-77
2024/01/23 01:50:23;;;;;;;8.05;5.25;;;6.50;69.40;;;;;;6152272;23;20453;-76
2024/01/23 01:52:49;;;;;;;8.65;5.20;;;6.50;69.40;;;;;;6077912;23;20071;-77
2024/01/23 01:55:15;;;;;;;6.90;4.97;;;6.50;69.30;;;;;;6153713;23;20079;-77
2024/01/23 01:57:42;;;;;;;7.63;4.88;;;6.60;69.30;;;;;;6151751;23;20461;-78
2024/01/23 02:00:08;;;;;;;6.25;4.78;;;6.50;69.40;;;;;;6152574;23;20099;-77
2024/01/23 02:02:41;;;;;;;7.15;4.82;;;6.50;69.30;;;;;;6126108;23;20530;-79
2024/01/23 02:05:07;;;;;;;7.05;4.97;;;6.60;69.20;;;;;;6152261;23;20014;-76
2024/01/23 02:07:34;;;;;;;6.80;4.95;;;6.50;68.90;;;;;;6152611;23;20017;-78
2024/01/23 02:10:00;;;;;;;6.47;4.82;;;6.50;69.10;;;;;;6152830;23;20037;-77
2024/01/23 02:12:26;;;;;;;9.48;5.18;;;6.50;68.90;;;;;;6126042;23;20113;-77
2024/01/23 02:14:52;;;;;;;8.68;5.35;;;6.60;69.00;;;;;;6126879;23;20091;-76
2024/01/23 02:17:18;;;;;;;9.40;5.38;;;6.50;69.50;;;;;;6152346;23;20492;-78
2024/01/23 02:19:44;;;;;;;7.10;5.35;;;6.50;69.10;;;;;;6152145;23;20016;-77
2024/01/23 02:22:10;;;;;;;7.78;5.15;;;6.60;69.10;;;;;;6151310;23;20100;-76
2024/01/23 02:24:36;;;;;;;7.65;5.35;;;6.60;69.20;;;;;;6152584;23;20528;-77
2024/01/23 02:27:02;;;;;;;7.68;5.10;;;6.60;69.30;;;;;;6152259;23;20044;-78
2024/01/23 02:29:28;;;;;;;8.48;5.32;;;6.60;69.20;;;;;;6150977;23;20408;-76
2024/01/23 02:31:54;;;;;;;7.40;4.75;;;6.50;69.00;;;;;;6152282;23;20088;-78
2024/01/23 02:34:21;;;;;;;7.50;5.10;;;6.60;69.60;;;;;;6127089;23;20044;-78
2024/01/23 02:36:47;;;;;;;8.00;5.20;;;6.60;69.00;;;;;;6151047;23;20025;-77
2024/01/23 02:39:13;;;;;;;7.45;5.70;;;6.60;68.80;;;;;;6151336;23;20017;-78
2024/01/23 02:41:39;;;;;;;9.15;5.32;;;6.60;68.60;;;;;;6152590;23;20108;-78
2024/01/23 02:44:05;;;;;;;8.20;5.88;;;6.60;68.30;;;;;;6151437;23;20115;-77
2024/01/23 02:46:31;;;;;;;15.00;5.75;;;6.60;68.20;;;;;;6152451;23;20404;-77
2024/01/23 02:48:57;;;;;;;8.63;5.53;;;6.60;68.50;;;;;;6151903;23;20025;-75
2024/01/23 02:51:23;;;;;;;9.07;4.93;;;6.60;68.60;;;;;;6127085;23;20025;-76
2024/01/23 02:53:49;;;;;;;9.93;5.75;;;6.60;68.40;;;;;;6153949;23;20127;-76
2024/01/23 02:56:15;;;;;;;8.85;5.65;;;6.60;68.20;;;;;;6154145;23;20037;-76
2024/01/23 02:58:42;;;;;;;6.25;5.07;;;6.60;68.20;;;;;;6154308;23;20476;-79
2024/01/23 03:01:08;;;;;;;8.23;5.18;;;6.50;68.20;;;;;;6153563;23;20097;-78
2024/01/23 03:03:34;;;;;;;7.82;5.07;;;6.60;68.10;;;;;;6154714;23;20024;-77
2024/01/23 03:06:00;;;;;;;7.25;5.03;;;6.60;68.00;;;;;;6128569;23;20017;-77
2024/01/23 03:08:26;;;;;;;8.73;5.20;;;6.60;68.00;;;;;;6154574;23;20104;-77
2024/01/23 03:10:52;;;;;;;8.95;5.65;;;6.60;68.00;;;;;;6127850;23;20162;-77
2024/01/23 03:13:18;;;;;;;8.57;5.35;;;6.60;67.80;;;;;;6153364;23;20389;-77
2024/01/23 03:15:44;;;;;;;8.75;5.55;;;6.60;67.90;;;;;;6152695;23;20017;-76
2024/01/23 03:18:11;;;;;;;6.95;5.13;;;6.60;68.10;;;;;;6151657;23;20017;-77
2024/01/23 03:20:37;;;;;;;8.15;5.40;;;6.60;68.20;;;;;;6153569;23;20021;-77
2024/01/23 03:23:03;;;;;;;9.07;5.95;;;6.60;68.20;;;;;;6154645;23;20453;-77
2024/01/23 03:25:29;;;;;;;7.90;5.18;;;6.60;68.00;;;;;;6153829;23;20096;-77
2024/01/23 03:27:56;;;;;;;8.07;5.72;;;6.60;68.30;;;;;;6129614;23;20022;-77
2024/01/23 03:30:32;;;;;;;13.60;5.45;;;6.60;67.80;;;;;;6129219;23;20100;-77
2024/01/23 03:33:00;;;;;;;10.35;5.90;;;6.60;67.50;;;;;;6154112;23;20025;-77
2024/01/23 03:35:26;;;;;;;7.60;5.45;;;6.60;67.50;;;;;;6152962;23;20021;-77
2024/01/23 03:37:52;;;;;;;7.88;5.38;;;6.60;67.50;;;;;;6154191;23;20015;-77
2024/01/23 03:40:18;;;;;;;9.60;5.93;;;6.60;67.40;;;;;;6154682;23;20009;-77
2024/01/23 03:42:44;;;;;;;10.43;5.88;;;6.60;67.30;;;;;;6152781;23;20093;-77
2024/01/23 03:45:10;;;;;;;8.32;5.47;;;6.60;67.50;;;;;;6128264;23;20021;-77
2024/01/23 03:47:37;;;;;;;9.05;6.13;;;6.60;67.50;;;;;;6152063;23;20361;-79
2024/01/23 03:50:04;;;;;;;11.18;5.50;;;6.60;67.40;;;;;;6103569;23;20017;-80
2024/01/23 03:52:30;;;;;;;7.57;5.25;;;6.60;67.20;;;;;;6154430;23;20472;-78
2024/01/23 03:54:56;;;;;;;9.85;5.95;;;6.60;67.30;;;;;;6152827;23;20021;-78
2024/01/23 03:57:22;;;;;;;7.93;5.47;;;6.60;67.40;;;;;;6152364;23;20543;-79
2024/01/23 03:59:49;;;;;;;8.63;5.55;;;6.60;67.30;;;;;;6128007;23;20108;-79
2024/01/23 04:02:15;;;;;;;8.98;5.80;;;6.60;67.30;;;;;;6153170;23;20076;-79
2024/01/23 04:04:41;;;;;;;9.32;5.97;;;6.60;67.20;;;;;;6152574;23;20361;-79
2024/01/23 04:07:07;;;;;;;12.85;6.18;;;6.60;67.20;;;;;;6153967;23;20006;-77
2024/01/23 04:09:33;;;;;;;9.90;5.63;;;6.60;67.10;;;;;;6154183;23;20058;-78
2024/01/23 04:11:59;;;;;;;8.65;5.32;;;6.60;67.10;;;;;;6151738;23;20024;-79
2024/01/23 04:14:25;;;;;;;9.35;5.55;;;6.60;67.20;;;;;;6079364;23;20021;-81
2024/01/23 04:16:51;;;;;;;9.20;6.10;;;6.60;67.20;;;;;;6102858;23;20006;-80
2024/01/23 04:19:17;;;;;;;7.88;5.28;;;6.60;67.40;;;;;;6128340;23;20338;-80
2024/01/23 04:21:44;;;;;;;9.35;5.40;;;6.60;67.20;;;;;;6102890;23;20108;-78
2024/01/23 04:24:10;;;;;;;9.27;5.70;;;6.60;67.40;;;;;;6153532;23;20025;-91
2024/01/23 04:26:37;;;;;;;9.13;5.88;;;6.60;67.40;;;;;;6110468;23;20022;-88
2024/01/23 04:29:03;;;;;;;8.35;5.65;;;6.60;67.10;;;;;;6083808;23;20017;-89
2024/01/23 04:31:30;;;;;;;8.73;6.03;;;6.60;66.80;;;;;;6107822;23;20453;-94
2024/01/23 04:33:56;;;;;;;8.35;5.55;;;6.60;66.50;;;;;;6107647;23;20044;-86
2024/01/23 04:36:22;;;;;;;10.45;6.20;;;6.60;66.40;;;;;;6131081;23;20048;-91
2024/01/23 04:38:48;;;;;;;9.32;6.18;;;6.60;66.20;;;;;;6083830;23;20021;-90
2024/01/23 04:41:15;;;;;;;11.00;6.65;;;6.60;66.10;;;;;;6157152;23;20029;-86
2024/01/23 04:43:42;;;;;;;10.85;6.40;;;6.60;65.90;;;;;;6109233;23;20013;-95
2024/01/23 04:46:08;;;;;;;8.77;6.20;;;6.60;66.10;;;;;;6133242;23;20084;-92
2024/01/23 04:48:35;;;;;;;9.90;6.35;;;6.60;65.80;;;;;;6152763;23;20033;-84
2024/01/23 04:51:01;;;;;;;8.18;5.75;;;6.60;65.90;;;;;;6104039;23;20023;-85
2024/01/23 04:53:32;;;;;;;9.70;6.13;;;6.60;66.20;;;;;;6128547;23;20032;-79
2024/01/23 04:55:58;;;;;;;11.73;6.85;;;6.60;66.60;;;;;;6152859;23;20100;-80
2024/01/23 04:58:25;;;;;;;11.30;6.80;;;6.60;66.80;;;;;;6151805;23;20025;-80
2024/01/23 05:00:51;;;;;;;12.10;6.47;;;6.60;67.20;;;;;;6151339;23;20048;-80
2024/01/23 05:03:17;;;;;;;13.20;6.72;;;6.60;67.20;;;;;;6151245;23;20017;-79
2024/01/23 05:05:43;;;;;;;12.43;7.18;;;6.60;67.50;;;;;;6102404;23;20042;-79
2024/01/23 05:08:09;;;;;;;11.13;6.70;;;6.60;67.60;;;;;;6101931;23;20017;-79
2024/01/23 05:10:35;;;;;;;12.30;7.38;;;6.60;67.60;;;;;;6126717;23;20036;-79
2024/01/23 05:13:01;;;;;;;16.83;7.40;;;6.60;67.80;;;;;;6126120;23;20089;-79
2024/01/23 05:15:27;;;;;;;12.23;7.63;;;6.70;68.30;;;;;;6102550;23;20057;-79
2024/01/23 05:17:54;;;;;;;13.18;7.10;;;6.60;68.40;;;;;;6126698;23;20028;-79
2024/01/23 05:20:20;;;;;;;12.95;8.27;;;6.60;68.50;;;;;;6127012;23;20037;-80
2024/01/23 05:22:46;;;;;;;11.43;7.10;;;6.70;68.70;;;;;;6152602;23;20009;-79
2024/01/23 05:25:12;;;;;;;13.45;7.22;;;6.70;68.90;;;;;;6102986;23;20461;-79
2024/01/23 05:27:38;;;;;;;14.15;6.70;;;6.70;68.70;;;;;;6126838;23;20044;-79
2024/01/23 05:30:06;;;;;;;15.18;8.02;;;6.70;68.50;;;;;;6152496;23;20021;-80
2024/01/23 05:32:32;;;;;;;15.13;7.85;;;6.70;68.40;;;;;;6151214;23;20113;-80
2024/01/23 05:34:59;;;;;;;11.00;6.40;;;6.70;68.40;;;;;;6152641;23;20013;-79
2024/01/23 05:37:25;;;;;;;12.10;6.80;;;6.70;68.40;;;;;;6102663;23;20005;-80
2024/01/23 05:39:51;;;;;;;12.27;6.82;;;6.70;68.30;;;;;;6126341;23;20017;-78
2024/01/23 05:42:17;;;;;;;9.85;6.65;;;6.70;68.20;;;;;;6148597;23;20021;-80
2024/01/23 05:44:43;;;;;;;11.85;7.15;;;6.70;67.80;;;;;;6150899;23;20373;-79
2024/01/23 05:47:09;;;;;;;13.55;7.38;;;6.70;67.70;;;;;;6150676;23;20032;-79
2024/01/23 05:49:35;;;;;;;12.27;7.85;;;6.70;67.90;;;;;;6152228;23;20088;-78
2024/01/23 05:52:01;;;;;;;11.82;7.28;;;6.70;67.60;;;;;;6152740;23;20013;-80
2024/01/23 05:54:27;;;;;;;9.77;6.75;;;6.70;67.50;;;;;;6102399;23;20036;-82
2024/01/23 05:56:53;;;;;;;14.15;8.27;;;6.70;67.60;;;;;;6153130;23;20017;-81
2024/01/23 05:59:19;;;;;;;13.88;7.60;;;6.70;67.50;;;;;;6151296;23;20052;-83
2024/01/23 06:01:45;;;;;;;12.07;7.35;;;6.70;67.10;;;;;;6101937;23;20067;-79
2024/01/23 06:04:12;;;;;;;11.27;7.10;;;6.70;67.00;;;;;;6152777;23;20009;-80
2024/01/23 06:06:42;;;;;;;13.50;8.40;;;6.70;67.10;;;;;;6151000;23;20080;-80
2024/01/23 06:09:11;;;;;;;12.90;7.45;;;6.70;67.00;;;;;;6152054;23;20095;-79
2024/01/23 06:11:40;;;;;;;16.15;8.88;;;6.70;66.80;;;;;;6152202;23;20014;-79
2024/01/23 06:14:06;;;;;;;13.23;7.68;;;6.70;66.80;;;;;;6126281;23;20017;-80
2024/01/23 06:16:32;;;;;;;13.80;8.15;;;6.70;67.00;;;;;;6152904;23;20006;-81
2024/01/23 06:18:58;;;;;;;12.35;7.72;;;6.70;67.20;;;;;;6150532;23;20044;-79
2024/01/23 06:21:24;;;;;;;13.45;7.95;;;6.70;67.20;;;;;;6101160;23;20480;-81
2024/01/23 06:23:50;;;;;;;10.80;6.70;;;6.70;67.20;;;;;;6126435;23;20025;-79
2024/01/23 06:26:17;;;;;;;10.32;6.75;;;6.70;67.00;;;;;;6125899;23;20017;-79
2024/01/23 06:28:45;;;;;;;12.00;7.80;;;6.70;66.80;;;;;;6152291;23;20017;-80
2024/01/23 06:31:12;;;;;;;11.15;7.25;;;6.70;66.70;;;;;;6150927;23;20017;-78
2024/01/23 06:33:38;;;;;;;14.93;8.10;;;6.80;66.50;;;;;;6125876;23;20083;-80
2024/01/23 06:36:04;;;;;;;15.63;7.88;;;6.80;66.60;;;;;;6150842;23;20024;-80
2024/01/23 06:38:30;;;;;;;12.18;7.88;;;6.80;66.60;;;;;;6125945;23;20014;-79
2024/01/23 06:40:56;;;;;;;11.70;7.97;;;6.80;67.20;;;;;;6151531;23;20071;-78
2024/01/23 06:43:22;;;;;;;13.40;7.80;;;6.70;67.40;;;;;;6126686;23;20014;-80
2024/01/23 06:45:48;;;;;;;13.55;8.57;;;6.80;67.80;;;;;;6152013;23;20025;-79
2024/01/23 06:48:15;;;;;;;12.30;7.53;;;6.80;68.30;;;;;;6151998;23;20112;-79
2024/01/23 06:50:44;;;;;;;12.43;7.97;;;6.80;68.60;;;;;;6125983;23;20381;-78
2024/01/23 06:53:10;;;;;;;11.82;7.78;;;6.80;68.90;;;;;;6151831;23;20013;-79
2024/01/23 06:55:36;;;;;;;12.95;8.40;;;6.80;68.80;;;;;;6101599;23;20575;-79
2024/01/23 06:58:04;;;;;;;11.65;7.90;;;6.80;68.80;;;;;;6152777;23;20016;-79
2024/01/23 07:00:30;;;;;;;13.48;8.15;;;6.80;69.00;;;;;;6150153;23;20017;-78
2024/01/23 07:02:56;;;;;;;13.05;8.02;;;6.80;68.90;;;;;;6101221;23;20024;-78
2024/01/23 07:05:22;;;;;;;13.38;8.43;;;6.80;68.80;;;;;;6126052;23;20028;-80
2024/01/23 07:07:48;;;;;;;13.27;8.38;;;6.80;68.70;;;;;;6126055;23;20017;-79
2024/01/23 07:10:14;;;;;;;13.40;8.75;;;6.80;68.70;;;;;;6152512;23;20025;-79
2024/01/23 07:12:40;;;;;;;14.43;8.30;;;6.80;68.50;;;;;;6150558;23;20018;-80
2024/01/23 07:15:06;;;;;;;12.15;7.78;;;6.80;68.50;;;;;;6150490;23;20368;-80
2024/01/23 07:17:32;;;;;;;12.93;7.95;;;6.80;68.60;;;;;;6150598;23;20017;-81
2024/01/23 07:19:59;;;;;;;12.30;8.27;;;6.90;68.70;;;;;;6150549;23;20096;-78
2024/01/23 07:22:25;;;;;;;12.27;8.27;;;6.90;68.80;;;;;;6102431;23;20121;-80
2024/01/23 07:24:51;;;;;;;13.95;8.43;;;6.90;68.60;;;;;;6152014;23;20053;-79
2024/01/23 07:27:19;;;;;;;14.10;8.93;;;6.90;68.40;;;;;;6126210;23;20346;-79
2024/01/23 07:29:45;;;;;;;13.55;8.63;;;6.90;68.10;;;;;;6152192;23;20025;-81
2024/01/23 07:32:11;;;;;;;15.40;9.52;;;6.90;68.00;;;;;;6152114;23;20013;-79
2024/01/23 07:34:37;;;;;;;14.35;9.48;;;6.90;68.00;;;;;;6077543;23;20016;-80
2024/01/23 07:37:04;;;;;;;14.57;8.73;;;6.90;68.50;;;;;;6153846;23;20092;-81
2024/01/23 07:39:30;;;;;;;13.25;8.60;;;6.90;67.70;;;;;;6128011;23;20068;-79
2024/01/23 07:41:57;;;;;;;12.60;8.40;;;6.90;67.50;;;;;;6153826;23;20021;-79
2024/01/23 07:44:23;;;;;;;14.05;8.23;;;7.00;67.30;;;;;;6154201;23;20037;-80
2024/01/23 07:46:49;;;;;;;13.18;8.68;;;7.00;67.40;;;;;;6151433;23;20018;-80
2024/01/23 07:49:16;;;;;;;13.40;8.57;;;7.00;67.10;;;;;;6154539;23;20497;-80
2024/01/23 07:51:48;;;;;;;15.43;9.02;;;6.90;66.80;;;;;;6153570;23;20097;-79
2024/01/23 07:54:15;;;;;;;14.30;8.43;;;7.00;66.80;;;;;;6153912;23;20022;-79
2024/01/23 07:56:41;;;;;;;14.10;8.82;;;7.00;66.70;;;;;;6153486;23;20021;-79
2024/01/23 07:59:07;;;;;;;12.57;8.35;;;7.00;66.40;;;;;;6153303;23;20096;-79
2024/01/23 08:01:33;;;;;;;13.35;9.00;;;7.00;66.30;;;;;;6153105;23;20016;-79
2024/01/23 08:04:00;;;;;;;20.10;10.02;;;7.00;66.20;;;;;;6152925;23;20005;-79
2024/01/23 08:06:26;;;;;;;13.85;8.82;;;7.00;66.10;;;;;;6152976;23;20021;-78
2024/01/23 08:08:52;;;;;;;13.80;8.73;;;7.00;66.20;;;;;;6153093;23;20021;-79
2024/01/23 08:11:20;;;;;;;14.98;9.15;;;7.00;66.00;;;;;;6151320;23;20096;-80
2024/01/23 08:13:46;;;;;;;15.93;9.13;;;7.10;66.20;;;;;;6151929;23;20016;-79
2024/01/23 08:16:12;;;;;;;13.80;8.85;;;7.10;65.90;;;;;;6127973;23;20062;-81
2024/01/23 08:18:39;;;;;;;13.23;8.90;;;7.00;65.70;;;;;;6128217;23;20100;-79
2024/01/23 08:21:05;;;;;;;13.85;9.27;;;7.10;65.70;;;;;;6126945;23;20650;-78
2024/01/23 08:23:31;;;;;;;13.65;9.05;;;7.10;65.60;;;;;;6152069;23;20441;-79
2024/01/23 08:25:57;;;;;;;13.77;9.50;;;7.10;65.80;;;;;;6079462;23;20076;-81
2024/01/23 08:28:24;;;;;;;12.95;8.38;;;7.10;66.00;;;;;;6158771;23;20013;-81
2024/01/23 08:30:50;;;;;;;10.65;7.35;;;7.20;67.60;;;;;;6156290;23;20036;-84
2024/01/23 08:33:18;;;;;;;13.77;8.60;;;7.20;67.80;;;;;;6129314;23;20393;-79
2024/01/23 08:35:44;;;;;;;13.48;8.90;;;7.20;67.30;;;;;;6102617;23;20065;-79
2024/01/23 08:38:11;;;;;;;14.57;9.23;;;7.30;67.10;;;;;;6127318;23;20100;-80
2024/01/23 08:40:41;;;;;;;13.07;8.38;;;7.30;66.60;;;;;;6127091;23;20068;-79
2024/01/23 08:43:08;;;;;;;13.45;8.75;;;7.30;67.20;;;;;;6154373;23;20088;-79
2024/01/23 08:45:34;;;;;;;15.23;9.60;;;7.30;66.20;;;;;;6127669;23;20017;-80
2024/01/23 08:48:00;;;;;;;14.57;8.98;;;7.30;66.10;;;;;;6152552;23;20076;-79
2024/01/23 08:50:26;;;;;;;14.90;8.68;;;7.30;65.90;;;;;;6143470;23;20057;-78
2024/01/23 08:52:53;;;;;;;14.98;9.30;;;7.30;65.70;;;;;;6150797;23;20088;-80
2024/01/23 08:55:19;;;;;;;15.23;8.95;;;7.30;65.50;;;;;;6151690;23;20013;-79
2024/01/23 08:57:46;;;;;;;14.95;8.77;;;7.30;65.40;;;;;;6125156;23;20022;-81
2024/01/23 09:00:13;;;;;;;12.27;7.85;;;7.40;66.10;;;;;;6124917;23;20528;-80
2024/01/23 09:02:40;;;;;;;13.43;9.07;;;7.40;66.60;;;;;;6125395;23;20017;-80
2024/01/23 09:05:06;;;;;;;13.32;9.32;;;7.40;66.20;;;;;;6124323;23;20021;-79
2024/01/23 09:07:32;;;;;;;13.98;9.55;;;7.40;66.10;;;;;;6153425;23;20009;-81
2024/01/23 09:09:58;;;;;;;13.40;9.32;;;7.50;65.90;;;;;;6149757;23;20076;-80
2024/01/23 09:12:25;;;;;;;12.93;9.23;;;7.40;65.60;;;;;;6149623;23;20406;-82
2024/01/23 09:14:51;;;;;;;15.07;8.98;;;7.40;65.30;;;;;;6125290;23;20017;-79
2024/01/23 09:17:17;;;;;;;14.38;9.18;;;7.50;65.30;;;;;;6124943;23;20104;-82
2024/01/23 09:19:43;;;;;;;13.63;9.27;;;7.40;65.00;;;;;;6100442;23;20064;-82
2024/01/23 09:22:09;;;;;;;14.65;9.25;;;7.50;65.00;;;;;;6150191;23;20315;-80
2024/01/23 09:24:35;;;;;;;16.15;9.73;;;7.40;64.80;;;;;;6125484;23;20493;-80
2024/01/23 09:27:03;;;;;;;14.65;9.65;;;7.50;64.60;;;;;;6152197;23;20076;-80
2024/01/23 09:29:30;;;;;;;15.40;9.93;;;7.50;64.50;;;;;;6124744;23;20017;-79
2024/01/23 09:31:56;;;;;;;14.38;10.00;;;7.50;64.50;;;;;;6149838;23;20488;-81
2024/01/23 09:34:23;;;;;;;16.20;10.02;;;7.50;64.60;;;;;;6151967;23;20664;-81
2024/01/23 09:36:49;;;;;;;15.02;10.32;;;7.50;64.50;;;;;;6124761;23;20108;-80
2024/01/23 09:39:15;;;;;;;14.88;9.75;;;7.50;64.50;;;;;;6076343;23;20021;-81
2024/01/23 09:41:48;;;;;;;17.35;10.00;;;7.50;64.70;;;;;;6124390;23;20021;-83
2024/01/23 09:44:14;;;;;;;15.25;10.00;;;7.50;64.60;;;;;;6100803;23;20414;-81
2024/01/23 09:46:43;;;;;;;14.93;9.90;;;7.50;64.80;;;;;;6124950;23;20020;-82
2024/01/23 09:49:10;;;;;;;18.30;9.80;;;7.50;64.80;;;;;;6149348;23;20108;-81
2024/01/23 09:51:40;;;;;;;14.52;9.75;;;7.50;65.00;;;;;;6148504;23;20598;-83
2024/01/23 09:54:08;;;;;;;13.63;9.45;;;7.50;65.20;;;;;;6150835;23;20021;-82
2024/01/23 09:56:36;;;;;;;16.10;9.93;;;7.50;65.30;;;;;;6149006;23;20576;-81
2024/01/23 09:59:03;;;;;;;15.32;9.38;;;7.50;65.20;;;;;;6124362;23;20450;-81
2024/01/23 10:01:30;;;;;;;15.75;10.00;;;7.50;65.20;;;;;;6150881;23;20020;-81
2024/01/23 10:03:58;;;;;;;15.35;10.02;;;7.50;65.30;;;;;;6148887;23;20017;-82
2024/01/23 10:06:25;;;;;;;15.05;10.10;;;7.50;65.20;;;;;;6149161;23;20060;-81
2024/01/23 10:08:51;;;;;;;16.20;10.38;;;7.50;65.10;;;;;;6125203;23;20129;-81
2024/01/23 10:11:17;;;;;;;16.27;10.63;;;7.50;65.10;;;;;;6150120;23;20041;-81
2024/01/23 10:13:45;;;;;;;15.48;10.13;;;7.50;65.20;;;;;;6148844;23;20011;-80
2024/01/23 10:16:12;;;;;;;14.00;9.15;;;7.50;65.20;;;;;;6151168;23;20429;-80
2024/01/23 10:18:37;;;;;;;16.70;9.77;;;7.50;65.30;;;;;;6150632;23;20017;-80
2024/01/23 10:21:04;;;;;;;15.88;9.90;;;7.50;65.10;;;;;;6124312;23;20032;-80
2024/01/23 10:23:32;;;;;;;14.77;9.93;;;7.50;65.00;;;;;;6150622;23;20021;-81
2024/01/23 10:25:58;;;;;;;16.42;10.02;;;7.60;65.00;;;;;;6149139;23;20018;-81
2024/01/23 10:28:25;;;;;;;15.90;10.13;;;7.50;65.00;;;;;;6149644;23;20096;-81
2024/01/23 10:30:51;;;;;;;15.13;9.90;;;7.50;64.90;;;;;;6149253;23;20028;-80
2024/01/23 10:33:18;;;;;;;15.57;9.68;;;7.50;64.80;;;;;;6149300;23;20013;-82
2024/01/23 10:35:45;;;;;;;16.25;10.15;;;7.50;64.70;;;;;;6149224;23;20024;-81
2024/01/23 10:38:16;;;;;;;16.77;11.05;;;7.60;64.80;;;;;;6148943;23;20021;-81
2024/01/23 10:40:43;;;;;;;15.95;9.88;;;7.50;64.60;;;;;;6149033;23;20010;-82
2024/01/23 10:43:09;;;;;;;15.93;10.38;;;7.50;64.40;;;;;;6100778;23;20489;-79
2024/01/23 10:45:36;;;;;;;13.82;9.88;;;7.60;64.60;;;;;;6124383;23;20073;-81
2024/01/23 10:48:06;;;;;;;13.77;9.80;;;7.60;64.60;;;;;;6124081;23;20060;-82
2024/01/23 10:50:34;;;;;;;13.85;9.30;;;7.50;65.00;;;;;;6124283;23;20120;-82
2024/01/23 10:53:06;;;;;;;13.23;9.57;;;7.60;64.40;;;;;;6124318;23;20091;-82
2024/01/23 10:55:32;;;;;;;15.43;10.05;;;7.60;64.50;;;;;;6152319;23;20013;-81
2024/01/23 10:58:21;;;;;;;15.88;9.82;;;7.50;64.30;;;;;;6124404;23;20030;-81
2024/01/23 11:00:50;;;;;;;17.40;10.38;;;7.50;64.30;;;;;;6150007;23;20072;-80
2024/01/23 11:03:17;;;;;;;14.27;9.38;;;7.60;64.30;;;;;;6150276;23;20081;-81
2024/01/23 11:06:01;;;;;;;16.33;10.38;;;7.60;64.40;;;;;;6150357;23;20408;-81
2024/01/23 11:08:29;;;;;;;15.15;10.18;;;7.60;64.40;;;;;;6101582;23;20472;-81
2024/01/23 11:11:24;;;;;;;15.30;10.32;;;7.60;64.40;;;;;;6151740;23;20670;-80
2024/01/23 11:13:59;;;;;;;15.00;9.88;;;7.60;64.40;;;;;;6127556;23;20012;-80
2024/01/23 11:16:25;;;;;;;14.40;9.70;;;7.60;64.40;;;;;;6154729;23;20036;-81
2024/01/23 11:18:55;;;;;;;14.52;9.55;;;7.60;64.30;;;;;;6153351;23;20477;-79
2024/01/23 11:21:24;;;;;;;14.15;9.63;;;7.60;64.20;;;;;;6152401;23;20100;-80
2024/01/23 11:24:01;;;;;;;15.63;10.13;;;7.60;64.10;;;;;;6152062;23;20473;-82
2024/01/23 11:26:27;;;;;;;14.45;9.32;;;7.60;64.10;;;;;;6154261;23;20052;-81
2024/01/23 11:29:04;;;;;;;16.25;10.00;;;7.60;64.10;;;;;;6155167;23;20100;-82
2024/01/23 11:31:40;;;;;;;14.50;10.20;;;7.60;63.90;;;;;;6152372;23;20421;-80
2024/01/23 11:34:27;;;;;;;15.73;9.27;;;7.60;63.90;;;;;;6127631;23;20017;-82
2024/01/23 11:36:54;;;;;;;15.90;10.13;;;7.60;63.70;;;;;;6127798;23;20017;-82
2024/01/23 11:39:24;;;;;;;14.75;9.77;;;7.60;63.70;;;;;;6152748;23;20052;-81
2024/01/23 11:41:54;;;;;;;17.60;10.57;;;7.60;63.70;;;;;;6153302;23;20025;-79
2024/01/23 11:44:21;;;;;;;15.82;9.80;;;7.60;63.70;;;;;;6154155;23;20048;-81
2024/01/23 11:46:49;;;;;;;14.98;10.10;;;7.60;63.70;;;;;;6151993;23;20014;-80
2024/01/23 11:49:15;;;;;;;15.10;9.98;;;7.60;63.60;;;;;;6131062;23;20338;-81
2024/01/23 11:51:43;;;;;;;17.23;10.43;;;7.60;63.70;;;;;;6132698;23;20544;-90
2024/01/23 11:54:10;;;;;;;15.02;9.75;;;7.60;63.80;;;;;;6133435;23;20052;-88
2024/01/23 11:56:37;;;;;;;15.30;10.07;;;7.60;63.90;;;;;;6106409;23;20030;-90
2024/01/23 11:59:03;;;;;;;15.73;10.10;;;7.60;64.00;;;;;;6159984;23;20013;-85
2024/01/23 12:01:30;;;;;;;15.27;10.25;;;7.70;64.20;;;;;;6106209;23;20025;-88
2024/01/23 12:03:57;;;;;;;15.02;10.05;;;7.70;64.30;;;;;;6106905;23;20024;-87
2024/01/23 12:06:25;;;;;;;14.55;10.00;;;7.60;64.40;;;;;;6154216;23;20025;-86
2024/01/23 12:08:51;;;;;;;15.23;9.85;;;7.60;64.60;;;;;;6128770;23;20504;-88
2024/01/23 12:11:18;;;;;;;15.05;10.15;;;7.60;64.70;;;;;;6104017;23;20022;-84
2024/01/23 12:13:45;;;;;;;14.57;9.90;;;7.70;64.80;;;;;;6105483;23;20020;-86
2024/01/23 12:16:12;;;;;;;16.75;10.40;;;7.60;64.70;;;;;;6104207;23;20771;-85
2024/01/23 12:18:39;;;;;;;15.40;10.50;;;7.60;64.70;;;;;;6152724;23;20381;-85
2024/01/23 12:21:05;;;;;;;19.40;11.27;;;7.60;64.80;;;;;;6152862;23;20108;-86
2024/01/23 12:23:33;;;;;;;16.02;10.60;;;7.60;64.80;;;;;;6153299;23;20025;-85
2024/01/23 12:26:03;;;;;;;15.10;10.13;;;7.60;64.80;;;;;;6129073;23;20009;-86
2024/01/23 12:28:32;;;;;;;17.15;10.40;;;7.60;64.90;;;;;;6130014;23;20109;-84
2024/01/23 12:30:58;;;;;;;15.63;10.40;;;7.60;64.90;;;;;;6154747;23;20033;-85
2024/01/23 12:33:26;;;;;;;15.38;10.82;;;7.70;65.00;;;;;;6152791;23;20021;-86
2024/01/23 12:35:52;;;;;;;17.55;9.38;;;7.60;65.00;;;;;;6129347;23;20025;-84
2024/01/23 12:38:20;;;;;;;14.52;9.93;;;7.60;65.10;;;;;;6105045;23;20026;-87
2024/01/23 12:40:47;;;;;;;14.55;9.30;;;7.60;65.10;;;;;;6104108;23;20010;-85
2024/01/23 12:43:16;;;;;;;16.58;10.65;;;7.70;65.30;;;;;;6080758;23;20009;-85
2024/01/23 12:45:42;;;;;;;15.05;10.27;;;7.60;65.30;;;;;;6079726;23;20044;-87